createdAt,value
2018-07-25T00:00:58.271Z,24.83
2018-07-25T00:04:00.306Z,24.79
2018-07-25T00:07:02.437Z,24.75
2018-07-25T00:10:04.380Z,24.75
2018-07-25T00:13:06.433Z,24.72
2018-07-25T00:16:08.603Z,24.64
2018-07-25T00:19:11.613Z,24.58
2018-07-25T00:22:13.699Z,24.53
2018-07-25T00:25:15.640Z,24.42
2018-07-25T00:28:17.705Z,24.41
2018-07-25T00:31:19.775Z,24.40
2018-07-25T00:34:21.834Z,24.39
2018-07-25T00:37:23.902Z,24.36
2018-07-25T00:40:26.040Z,24.26
2018-07-25T00:43:28.034Z,24.18
2018-07-25T00:46:30.117Z,24.18
2018-07-25T00:49:32.184Z,24.20
2018-07-25T00:52:34.138Z,24.08
2018-07-25T00:55:37.236Z,24.04
2018-07-25T00:58:39.292Z,23.94
2018-07-25T01:01:41.268Z,23.95
2018-07-25T01:04:43.327Z,23.90
2018-07-25T01:07:45.456Z,23.91
2018-07-25T01:10:47.495Z,23.95
2018-07-25T01:13:49.564Z,23.92
2018-07-25T01:16:52.221Z,23.87
2018-07-25T01:19:54.295Z,23.83
2018-07-25T01:22:56.377Z,23.75
2018-07-25T01:25:58.459Z,23.74
2018-07-25T01:29:00.484Z,23.74
2018-07-25T01:32:02.482Z,23.74
2018-07-25T01:35:04.584Z,23.70
2018-07-25T01:38:06.588Z,23.67
2018-07-25T01:41:13.733Z,23.63
2018-07-25T01:44:15.880Z,23.57
2018-07-25T01:47:17.955Z,23.53
2018-07-25T01:50:20.064Z,23.47
2018-07-25T01:53:22.183Z,23.46
2018-07-25T01:56:24.287Z,23.43
2018-07-25T01:59:28.008Z,23.34
2018-07-25T02:02:29.971Z,23.35
2018-07-25T02:05:32.082Z,23.31
2018-07-25T02:08:34.230Z,23.27
2018-07-25T02:11:36.223Z,23.27
2018-07-25T02:14:38.356Z,23.22
2018-07-25T02:17:40.392Z,23.24
2018-07-25T02:20:43.318Z,23.18
2018-07-25T02:23:46.337Z,23.16
2018-07-25T02:26:48.455Z,23.10
2018-07-25T02:29:50.539Z,23.07
2018-07-25T02:32:52.559Z,23.04
2018-07-25T02:35:55.665Z,23.02
2018-07-25T02:38:57.703Z,22.98
2018-07-25T02:41:59.682Z,22.95
2018-07-25T02:45:01.774Z,22.96
2018-07-25T02:48:04.003Z,22.95
2018-07-25T02:51:06.119Z,23.00
2018-07-25T02:54:08.295Z,22.94
2018-07-25T02:57:10.341Z,22.90
2018-07-25T03:00:13.171Z,22.86
2018-07-25T03:03:15.287Z,22.81
2018-07-25T03:06:17.486Z,22.80
2018-07-25T03:09:19.619Z,22.74
2018-07-25T03:12:21.713Z,22.73
2018-07-25T03:15:23.796Z,22.70
2018-07-25T03:18:25.927Z,22.64
2018-07-25T03:21:28.035Z,22.60
2018-07-25T03:24:31.091Z,22.59
2018-07-25T03:27:33.090Z,22.57
2018-07-25T03:30:35.031Z,22.56
2018-07-25T03:33:37.203Z,22.46
2018-07-25T03:36:39.169Z,22.44
2018-07-25T03:39:41.280Z,22.42
2018-07-25T03:42:44.321Z,22.31
2018-07-25T03:45:46.551Z,22.30
2018-07-25T03:48:48.712Z,22.29
2018-07-25T03:51:50.663Z,22.31
2018-07-25T03:54:52.688Z,22.32
2018-07-25T03:57:54.948Z,22.29
2018-07-25T04:00:57.985Z,22.25
2018-07-25T04:04:00.084Z,22.28
2018-07-25T04:07:05.732Z,22.23
2018-07-25T04:10:07.795Z,22.16
2018-07-25T04:13:09.870Z,22.16
2018-07-25T04:16:12.025Z,22.20
2018-07-25T04:19:14.886Z,22.23
2018-07-25T04:22:16.987Z,22.13
2018-07-25T04:25:19.154Z,22.06
2018-07-25T04:28:21.236Z,21.89
2018-07-25T04:31:23.204Z,21.81
2018-07-25T04:34:25.326Z,21.73
2018-07-25T04:37:27.639Z,21.69
2018-07-25T04:40:29.683Z,21.75
2018-07-25T04:43:31.781Z,21.87
2018-07-25T04:46:34.054Z,22.01
2018-07-25T04:49:36.035Z,22.17
2018-07-25T04:52:38.174Z,22.20
2018-07-25T04:55:40.280Z,22.22
2018-07-25T04:58:43.352Z,22.35
2018-07-25T05:01:45.478Z,22.46
2018-07-25T05:04:47.589Z,22.54
2018-07-25T05:07:49.655Z,22.63
2018-07-25T05:10:51.675Z,22.71
2018-07-25T05:13:53.802Z,22.80
2018-07-25T05:16:55.880Z,22.86
2018-07-25T05:19:58.134Z,22.93
2018-07-25T05:23:01.254Z,23.02
2018-07-25T05:26:03.159Z,23.09
2018-07-25T05:29:05.269Z,23.17
2018-07-25T05:32:07.465Z,23.22
2018-07-25T05:35:10.756Z,23.26
2018-07-25T05:38:13.810Z,23.34
2018-07-25T05:41:15.979Z,23.46
2018-07-25T05:44:17.982Z,23.50
2018-07-25T05:47:20.236Z,23.57
2018-07-25T05:50:22.343Z,23.68
2018-07-25T05:53:24.395Z,23.80
2018-07-25T05:56:26.632Z,23.96
2018-07-25T05:59:28.744Z,24.00
2018-07-25T06:02:30.857Z,24.15
2018-07-25T06:05:32.939Z,24.26
2018-07-25T06:08:34.912Z,24.42
2018-07-25T06:11:37.272Z,24.42
2018-07-25T06:14:39.314Z,24.62
2018-07-25T06:17:45.241Z,24.70
2018-07-25T06:20:47.356Z,24.81
2018-07-25T06:23:49.617Z,24.90
2018-07-25T06:26:57.638Z,24.95
2018-07-25T06:29:59.755Z,24.97
2018-07-25T06:33:01.817Z,25.02
2018-07-25T06:36:04.293Z,24.94
2018-07-25T06:39:08.903Z,24.95
2018-07-25T06:42:10.992Z,25.01
2018-07-25T06:45:14.204Z,25.16
2018-07-25T06:48:16.499Z,25.20
2018-07-25T06:51:18.521Z,25.39
2018-07-25T06:54:20.773Z,25.65
2018-07-25T06:57:23.001Z,25.76
2018-07-25T07:00:24.961Z,25.90
2018-07-25T07:03:27.120Z,26.01
2018-07-25T07:06:29.231Z,26.04
2018-07-25T07:09:31.229Z,26.05
2018-07-25T07:12:35.359Z,26.12
2018-07-25T07:15:37.467Z,26.33
2018-07-25T07:18:39.611Z,26.43
2018-07-25T07:21:41.663Z,26.27
2018-07-25T07:24:45.922Z,26.18
2018-07-25T07:27:48.091Z,26.17
2018-07-25T07:30:51.178Z,26.33
2018-07-25T07:33:53.257Z,26.56
2018-07-25T07:36:55.354Z,26.58
2018-07-25T07:39:57.401Z,26.67
2018-07-25T07:42:59.459Z,26.74
2018-07-25T07:46:01.745Z,27.00
2018-07-25T07:49:04.115Z,26.98
2018-07-25T07:52:06.265Z,26.96
2018-07-25T07:55:08.456Z,27.05
2018-07-25T07:58:10.635Z,27.17
2018-07-25T08:01:12.784Z,27.38
2018-07-25T08:04:14.996Z,27.33
2018-07-25T08:07:17.087Z,27.29
2018-07-25T08:10:19.120Z,27.14
2018-07-25T08:13:21.361Z,27.57
2018-07-25T08:16:23.447Z,27.90
2018-07-25T08:19:25.532Z,28.02
2018-07-25T08:22:27.700Z,28.28
2018-07-25T08:25:30.759Z,28.46
2018-07-25T08:28:33.861Z,28.62
2018-07-25T08:31:35.919Z,28.66
2018-07-25T08:34:37.908Z,28.61
2018-07-25T08:37:40.028Z,28.59
2018-07-25T08:40:42.134Z,28.64
2018-07-25T09:41:57.916Z,30.80
2018-07-25T09:45:01.075Z,31.16
2018-07-25T09:48:04.203Z,31.40
2018-07-25T09:51:07.366Z,31.56
2018-07-25T09:54:11.792Z,31.68
2018-07-25T09:57:14.924Z,31.75
2018-07-25T10:00:23.375Z,31.80
2018-07-25T10:03:26.670Z,31.42
2018-07-25T10:06:29.788Z,31.77
2018-07-25T10:09:32.918Z,31.76
2018-07-25T10:12:36.098Z,32.08
2018-07-25T10:15:39.765Z,31.85
2018-07-25T10:18:42.879Z,31.61
2018-07-25T10:21:45.996Z,31.97
2018-07-25T10:24:49.466Z,32.22
2018-07-25T10:27:52.598Z,32.50
2018-07-25T10:30:55.703Z,32.73
2018-07-25T10:33:58.970Z,32.86
2018-07-25T10:37:02.088Z,33.12
2018-07-25T10:40:05.271Z,33.05
2018-07-25T10:43:08.420Z,33.13
2018-07-25T10:46:13.016Z,33.25
2018-07-25T10:49:16.315Z,33.34
2018-07-25T10:52:19.760Z,33.40
2018-07-25T10:55:23.078Z,33.24
2018-07-25T10:58:26.435Z,33.38
2018-07-25T11:01:29.623Z,32.94
2018-07-25T11:04:32.799Z,32.99
2018-07-25T11:07:36.170Z,33.34
2018-07-25T11:10:40.083Z,33.30
2018-07-25T11:13:43.320Z,33.29
2018-07-25T11:16:46.539Z,33.39
2018-07-25T11:19:49.710Z,33.34
2018-07-25T11:22:53.055Z,33.55
2018-07-25T11:25:56.809Z,33.43
2018-07-25T11:29:00.005Z,33.69
2018-07-25T11:32:03.248Z,33.79
2018-07-25T11:35:06.530Z,34.09
2018-07-25T11:38:10.423Z,34.25
2018-07-25T11:41:13.564Z,34.30
2018-07-25T11:44:16.816Z,34.33
2018-07-25T11:47:20.029Z,34.39
2018-07-25T11:50:23.367Z,33.84
2018-07-25T11:53:26.852Z,33.33
2018-07-25T11:56:30.243Z,32.74
2018-07-25T11:59:33.448Z,31.79
2018-07-25T12:02:36.715Z,31.13
2018-07-25T12:05:40.396Z,30.80
2018-07-25T12:08:43.591Z,30.74
2018-07-25T12:11:47.878Z,30.76
2018-07-25T12:14:51.149Z,30.51
2018-07-25T12:17:54.455Z,30.58
2018-07-25T12:21:11.436Z,30.81
2018-07-25T12:24:14.732Z,30.75
2018-07-25T12:27:18.017Z,30.85
2018-07-25T12:30:21.312Z,31.05
2018-07-25T12:33:24.552Z,31.20
2018-07-25T12:36:27.815Z,31.33
2018-07-25T12:39:32.069Z,31.60
2018-07-25T12:42:35.351Z,31.89
2018-07-25T12:45:38.483Z,32.18
2018-07-25T12:48:42.731Z,32.33
2018-07-25T12:51:45.948Z,32.22
2018-07-25T12:54:49.073Z,32.40
2018-07-25T12:57:52.480Z,32.56
2018-07-25T13:00:55.757Z,32.54
2018-07-25T13:03:59.039Z,32.60
2018-07-25T13:07:02.348Z,32.50
2018-07-25T13:10:05.659Z,32.57
2018-07-25T13:13:08.931Z,32.65
2018-07-25T13:16:12.831Z,32.64
2018-07-25T13:19:16.358Z,32.66
2018-07-25T13:22:19.584Z,32.64
2018-07-25T13:25:22.708Z,32.64
2018-07-25T13:28:25.961Z,32.65
2018-07-25T13:31:29.258Z,32.66
2018-07-25T13:34:32.505Z,32.67
2018-07-25T13:37:35.711Z,32.69
2018-07-25T13:40:39.064Z,32.69
2018-07-25T13:43:42.549Z,32.68
2018-07-25T13:46:45.977Z,32.70
2018-07-25T13:49:49.331Z,32.71
2018-07-25T13:52:52.560Z,32.73
2018-07-25T13:55:55.869Z,32.77
2018-07-25T13:58:59.162Z,32.78
2018-07-25T14:02:02.460Z,32.78
2018-07-25T14:05:06.007Z,32.80
2018-07-25T14:08:09.220Z,32.84
2018-07-25T14:11:13.068Z,32.94
2018-07-25T14:14:16.331Z,32.99
2018-07-25T14:17:19.511Z,32.96
2018-07-25T14:20:22.981Z,32.95
2018-07-25T14:23:26.372Z,32.88
2018-07-25T14:26:29.972Z,32.82
2018-07-25T14:29:33.308Z,32.83
2018-07-25T14:32:37.489Z,32.86
2018-07-25T14:35:41.390Z,32.78
2018-07-25T14:38:44.640Z,32.78
2018-07-25T14:41:47.987Z,32.88
2018-07-25T14:44:51.281Z,32.95
2018-07-25T14:47:54.544Z,33.06
2018-07-25T14:50:57.741Z,33.11
2018-07-25T14:54:01.277Z,33.14
2018-07-25T14:57:04.572Z,33.21
2018-07-25T15:00:07.879Z,33.50
2018-07-25T15:03:11.820Z,33.48
2018-07-25T15:06:15.056Z,33.49
2018-07-25T15:09:18.334Z,33.69
2018-07-25T15:12:25.807Z,34.10
2018-07-25T15:15:29.175Z,34.36
2018-07-25T15:18:32.544Z,34.58
2018-07-25T15:21:35.772Z,34.84
2018-07-25T15:24:39.627Z,35.03
2018-07-25T15:27:42.842Z,34.96
2018-07-25T15:30:45.976Z,34.77
2018-07-25T15:33:49.323Z,34.85
2018-07-25T15:36:53.411Z,34.95
2018-07-25T15:39:56.631Z,34.96
2018-07-25T15:42:59.883Z,35.15
2018-07-25T15:46:03.075Z,35.23
2018-07-25T15:49:08.824Z,35.14
2018-07-25T15:52:13.005Z,35.28
2018-07-25T15:55:16.219Z,34.96
2018-07-25T15:58:19.499Z,34.75
2018-07-25T16:01:22.839Z,34.78
2018-07-25T16:04:26.139Z,34.81
2018-07-25T16:07:29.384Z,34.72
2018-07-25T16:10:32.668Z,34.72
2018-07-25T16:13:36.852Z,34.64
2018-07-25T16:16:40.133Z,34.83
2018-07-25T16:19:44.319Z,35.19
2018-07-25T16:22:48.688Z,35.37
2018-07-25T16:25:51.804Z,35.45
2018-07-25T16:28:57.103Z,35.49
2018-07-25T16:32:00.391Z,35.40
2018-07-25T16:35:03.589Z,35.48
2018-07-25T16:38:07.119Z,35.49
2018-07-25T16:41:10.420Z,35.55
2018-07-25T16:44:13.832Z,35.54
2018-07-25T16:47:16.984Z,35.50
2018-07-25T16:50:20.329Z,35.45
2018-07-25T16:53:23.581Z,35.35
2018-07-25T16:56:26.995Z,35.10
2018-07-25T16:59:30.322Z,35.12
2018-07-25T17:02:34.678Z,35.06
2018-07-25T17:05:38.017Z,35.06
2018-07-25T17:08:42.141Z,34.96
2018-07-25T17:11:45.564Z,34.96
2018-07-25T17:14:48.884Z,34.91
2018-07-25T17:17:52.278Z,34.88
2018-07-25T17:20:55.423Z,34.80
2018-07-25T17:23:58.684Z,34.79
2018-07-25T17:27:02.015Z,34.80
2018-07-25T17:30:06.576Z,34.76
2018-07-25T17:33:09.887Z,34.76
2018-07-25T17:36:13.952Z,34.79
2018-07-25T17:39:17.229Z,34.70
2018-07-25T17:42:20.577Z,34.61
2018-07-25T17:45:23.856Z,34.55
2018-07-25T17:48:27.135Z,34.44
2018-07-25T17:51:30.318Z,34.35
2018-07-25T17:54:33.617Z,34.32
2018-07-25T17:57:37.949Z,34.26
2018-07-25T18:00:42.260Z,34.16
2018-07-25T18:03:45.689Z,34.05
2018-07-25T18:06:49.016Z,33.91
2018-07-25T18:09:52.410Z,33.76
2018-07-25T18:13:01.048Z,33.58
2018-07-25T18:16:04.284Z,33.48
2018-07-25T18:19:07.478Z,33.38
2018-07-25T18:22:11.275Z,33.32
2018-07-25T18:25:14.549Z,33.23
2018-07-25T18:28:18.349Z,33.12
2018-07-25T18:31:21.649Z,32.97
2018-07-25T18:34:27.084Z,32.89
2018-07-25T18:37:30.467Z,32.79
2018-07-25T18:40:33.764Z,32.73
2018-07-25T18:43:37.097Z,32.67
2018-07-25T18:46:41.823Z,32.48
2018-07-25T18:49:45.303Z,32.43
2018-07-25T18:52:48.561Z,32.35
2018-07-25T18:55:51.750Z,32.24
2018-07-25T18:58:55.043Z,32.20
2018-07-25T19:01:58.349Z,32.15
2018-07-25T19:05:01.694Z,32.11
2018-07-25T19:08:04.848Z,32.05
2018-07-25T19:11:10.098Z,31.89
2018-07-25T19:14:18.663Z,31.90
2018-07-25T19:17:21.983Z,31.86
2018-07-25T19:20:25.432Z,31.80
2018-07-25T19:23:28.928Z,31.70
2018-07-25T19:26:32.188Z,31.59
2018-07-25T19:29:35.483Z,31.50
2018-07-25T19:32:38.793Z,31.36
2018-07-25T19:35:42.474Z,31.19
2018-07-25T19:38:46.094Z,31.05
2018-07-25T19:41:49.355Z,30.97
2018-07-25T19:44:52.593Z,30.89
2018-07-25T19:47:55.808Z,30.84
2018-07-25T19:50:59.118Z,30.84
2018-07-25T19:54:02.472Z,30.82
2018-07-25T19:57:05.727Z,30.79
2018-07-25T20:00:08.987Z,30.70
2018-07-25T20:03:12.189Z,30.68
2018-07-25T20:06:15.580Z,30.61
2018-07-25T20:09:18.903Z,30.55
2018-07-25T20:12:22.246Z,30.45
2018-07-25T20:15:31.043Z,30.35
2018-07-25T20:18:34.323Z,30.28
2018-07-25T20:21:37.516Z,30.26
2018-07-25T20:24:40.873Z,30.15
2018-07-25T20:27:44.649Z,29.92
2018-07-25T20:30:47.891Z,29.80
2018-07-25T20:33:51.223Z,29.65
2018-07-25T20:36:54.711Z,29.59
2018-07-25T20:39:57.851Z,29.47
2018-07-25T20:43:01.175Z,29.33
2018-07-25T20:46:04.471Z,29.30
2018-07-25T20:49:08.137Z,29.28
2018-07-25T20:52:11.640Z,29.27
2018-07-25T20:55:15.071Z,29.27
2018-07-25T20:58:18.748Z,29.29
2018-07-25T21:01:21.876Z,29.26
2018-07-25T21:04:25.237Z,29.27
2018-07-25T21:07:28.423Z,29.29
2018-07-25T21:10:32.004Z,29.30
2018-07-25T21:13:35.199Z,29.23
2018-07-25T21:16:38.420Z,29.18
2018-07-25T21:19:41.699Z,29.17
2018-07-25T21:22:45.008Z,29.05
2018-07-25T21:25:48.543Z,29.00
2018-07-25T21:28:51.783Z,28.95
2018-07-25T21:31:55.006Z,28.87
2018-07-25T21:34:58.284Z,28.87
2018-07-25T21:38:01.588Z,28.86
2018-07-25T21:41:04.772Z,28.88
2018-07-25T21:44:08.323Z,28.80
2018-07-25T21:47:11.625Z,28.69
2018-07-25T21:50:14.921Z,28.61
2018-07-25T21:53:19.315Z,28.52
2018-07-25T21:56:22.749Z,28.47
2018-07-25T21:59:26.119Z,28.41
2018-07-25T22:02:48.280Z,28.29
2018-07-25T22:05:51.430Z,28.27
2018-07-25T22:08:54.573Z,28.17
2018-07-25T22:11:57.692Z,28.05
2018-07-25T22:15:00.818Z,27.94
2018-07-25T22:18:03.971Z,27.84
2018-07-25T22:21:07.209Z,27.58
2018-07-25T22:24:10.340Z,27.38
2018-07-25T22:27:13.606Z,27.08
2018-07-25T22:30:17.355Z,27.00
2018-07-25T22:33:20.502Z,27.07
2018-07-25T22:36:23.672Z,26.82
2018-07-25T22:39:26.815Z,26.82
2018-07-25T22:42:29.951Z,26.82
2018-07-25T22:45:33.198Z,26.80
2018-07-25T22:48:36.452Z,26.76
2018-07-25T22:51:39.496Z,26.74
2018-07-25T22:54:42.759Z,26.61
2018-07-25T22:57:46.533Z,26.43
2018-07-25T23:00:49.875Z,26.41
2018-07-25T23:03:53.046Z,26.24
2018-07-25T23:06:56.180Z,26.22
2018-07-25T23:09:59.334Z,26.30
2018-07-25T23:13:02.492Z,26.34
2018-07-25T23:16:05.863Z,26.33
2018-07-25T23:19:09.035Z,26.17
2018-07-25T23:22:12.169Z,26.26
2018-07-25T23:25:15.310Z,26.22
2018-07-25T23:28:19.672Z,26.08
2018-07-25T23:31:22.823Z,26.06
2018-07-25T23:34:25.969Z,26.01
2018-07-25T23:37:29.115Z,25.95
2018-07-25T23:40:32.240Z,25.79
2018-07-25T23:43:35.380Z,25.73
2018-07-25T23:46:38.870Z,25.76
2018-07-25T23:49:41.999Z,25.76
2018-07-25T23:52:45.135Z,25.73
2018-07-25T23:55:48.717Z,25.47
2018-07-25T23:58:52.014Z,25.40
